sensor_id;sensor_type;location;lat;lon;timestamp;P1;durP1;ratioP1;P2;durP2;ratioP2
75038;SDS011;63609;49.992;14.512;2023-07-20T00:03:31;5.55;;;2.00;;
75038;SDS011;63609;49.992;14.512;2023-07-20T00:05:58;3.20;;;1.73;;
75038;SDS011;63609;49.992;14.512;2023-07-20T00:08:25;4.65;;;1.95;;
75038;SDS011;63609;49.992;14.512;2023-07-20T00:10:52;5.78;;;2.10;;
75038;SDS011;63609;49.992;14.512;2023-07-20T00:13:19;5.40;;;1.80;;
75038;SDS011;63609;49.992;14.512;2023-07-20T00:15:47;4.13;;;2.08;;
75038;SDS011;63609;49.992;14.512;2023-07-20T00:18:15;5.57;;;2.38;;
75038;SDS011;63609;49.992;14.512;2023-07-20T00:20:43;3.72;;;1.75;;
75038;SDS011;63609;49.992;14.512;2023-07-20T00:23:10;6.03;;;2.22;;
75038;SDS011;63609;49.992;14.512;2023-07-20T00:25:37;4.50;;;2.33;;
75038;SDS011;63609;49.992;14.512;2023-07-20T00:28:04;5.13;;;2.83;;
75038;SDS011;63609;49.992;14.512;2023-07-20T00:30:31;4.25;;;2.30;;
75038;SDS011;63609;49.992;14.512;2023-07-20T00:32:58;4.30;;;1.75;;
75038;SDS011;63609;49.992;14.512;2023-07-20T00:35:25;3.67;;;1.80;;
75038;SDS011;63609;49.992;14.512;2023-07-20T00:37:52;7.10;;;2.85;;
75038;SDS011;63609;49.992;14.512;2023-07-20T00:40:20;5.82;;;2.92;;
75038;SDS011;63609;49.992;14.512;2023-07-20T00:42:47;3.55;;;2.50;;
75038;SDS011;63609;49.992;14.512;2023-07-20T00:45:20;6.13;;;2.42;;
75038;SDS011;63609;49.992;14.512;2023-07-20T00:47:49;5.07;;;2.30;;
75038;SDS011;63609;49.992;14.512;2023-07-20T00:50:16;4.45;;;2.53;;
75038;SDS011;63609;49.992;14.512;2023-07-20T00:52:44;5.05;;;2.65;;
75038;SDS011;63609;49.992;14.512;2023-07-20T00:55:12;4.47;;;2.67;;
75038;SDS011;63609;49.992;14.512;2023-07-20T00:57:39;4.15;;;2.28;;
75038;SDS011;63609;49.992;14.512;2023-07-20T01:00:06;6.95;;;2.85;;
75038;SDS011;63609;49.992;14.512;2023-07-20T01:02:33;8.05;;;2.38;;
75038;SDS011;63609;49.992;14.512;2023-07-20T01:05:01;5.45;;;2.67;;
75038;SDS011;63609;49.992;14.512;2023-07-20T01:12:51;5.28;;;2.78;;
75038;SDS011;63609;49.992;14.512;2023-07-20T01:15:19;6.35;;;3.00;;
75038;SDS011;63609;49.992;14.512;2023-07-20T01:17:46;4.60;;;2.88;;
75038;SDS011;63609;49.992;14.512;2023-07-20T01:20:16;5.90;;;2.90;;
75038;SDS011;63609;49.992;14.512;2023-07-20T01:23:00;6.93;;;3.03;;
75038;SDS011;63609;49.992;14.512;2023-07-20T01:31:24;4.78;;;2.90;;
75038;SDS011;63609;49.992;14.512;2023-07-20T01:33:54;4.30;;;2.40;;
75038;SDS011;63609;49.992;14.512;2023-07-20T01:36:24;4.65;;;2.65;;
75038;SDS011;63609;49.992;14.512;2023-07-20T01:38:54;5.00;;;2.65;;
75038;SDS011;63609;49.992;14.512;2023-07-20T01:41:23;5.25;;;2.38;;
75038;SDS011;63609;49.992;14.512;2023-07-20T01:43:51;5.20;;;2.33;;
75038;SDS011;63609;49.992;14.512;2023-07-20T01:46:17;4.13;;;2.63;;
75038;SDS011;63609;49.992;14.512;2023-07-20T01:48:45;6.55;;;2.92;;
75038;SDS011;63609;49.992;14.512;2023-07-20T01:51:12;3.42;;;2.10;;
75038;SDS011;63609;49.992;14.512;2023-07-20T01:53:43;5.70;;;2.83;;
75038;SDS011;63609;49.992;14.512;2023-07-20T01:56:13;6.25;;;2.65;;
75038;SDS011;63609;49.992;14.512;2023-07-20T01:58:40;5.35;;;2.50;;
75038;SDS011;63609;49.992;14.512;2023-07-20T02:01:07;6.30;;;2.53;;
75038;SDS011;63609;49.992;14.512;2023-07-20T02:03:34;3.53;;;2.53;;
75038;SDS011;63609;49.992;14.512;2023-07-20T02:06:02;6.22;;;2.90;;
75038;SDS011;63609;49.992;14.512;2023-07-20T02:08:30;4.22;;;2.72;;
75038;SDS011;63609;49.992;14.512;2023-07-20T02:10:57;4.40;;;2.78;;
75038;SDS011;63609;49.992;14.512;2023-07-20T02:13:25;5.05;;;2.40;;
75038;SDS011;63609;49.992;14.512;2023-07-20T02:15:52;5.25;;;2.63;;
75038;SDS011;63609;49.992;14.512;2023-07-20T02:18:20;5.43;;;2.97;;
75038;SDS011;63609;49.992;14.512;2023-07-20T02:20:47;7.68;;;2.67;;
75038;SDS011;63609;49.992;14.512;2023-07-20T02:23:14;7.40;;;3.63;;
75038;SDS011;63609;49.992;14.512;2023-07-20T02:25:41;5.57;;;3.00;;
75038;SDS011;63609;49.992;14.512;2023-07-20T02:28:09;5.97;;;2.78;;
75038;SDS011;63609;49.992;14.512;2023-07-20T02:30:39;6.53;;;3.05;;
75038;SDS011;63609;49.992;14.512;2023-07-20T02:33:06;6.20;;;3.33;;
75038;SDS011;63609;49.992;14.512;2023-07-20T02:35:34;5.53;;;2.92;;
75038;SDS011;63609;49.992;14.512;2023-07-20T02:38:01;7.85;;;3.45;;
75038;SDS011;63609;49.992;14.512;2023-07-20T02:40:28;6.43;;;2.97;;
75038;SDS011;63609;49.992;14.512;2023-07-20T02:42:55;5.75;;;2.88;;
75038;SDS011;63609;49.992;14.512;2023-07-20T02:45:22;5.10;;;2.92;;
75038;SDS011;63609;49.992;14.512;2023-07-20T02:47:51;4.70;;;3.17;;
75038;SDS011;63609;49.992;14.512;2023-07-20T02:50:18;6.88;;;2.63;;
75038;SDS011;63609;49.992;14.512;2023-07-20T02:52:45;6.50;;;3.65;;
75038;SDS011;63609;49.992;14.512;2023-07-20T02:55:12;4.72;;;2.50;;
75038;SDS011;63609;49.992;14.512;2023-07-20T02:57:39;5.30;;;2.75;;
75038;SDS011;63609;49.992;14.512;2023-07-20T03:00:06;4.05;;;2.78;;
75038;SDS011;63609;49.992;14.512;2023-07-20T03:02:34;4.60;;;2.97;;
75038;SDS011;63609;49.992;14.512;2023-07-20T03:05:01;5.50;;;3.10;;
75038;SDS011;63609;49.992;14.512;2023-07-20T03:07:32;4.57;;;3.13;;
75038;SDS011;63609;49.992;14.512;2023-07-20T03:09:59;8.70;;;3.15;;
75038;SDS011;63609;49.992;14.512;2023-07-20T03:12:27;5.55;;;3.10;;
75038;SDS011;63609;49.992;14.512;2023-07-20T03:14:54;4.25;;;2.50;;
75038;SDS011;63609;49.992;14.512;2023-07-20T03:17:21;4.75;;;2.88;;
75038;SDS011;63609;49.992;14.512;2023-07-20T03:19:48;5.20;;;3.00;;
75038;SDS011;63609;49.992;14.512;2023-07-20T03:22:14;5.78;;;2.47;;
75038;SDS011;63609;49.992;14.512;2023-07-20T03:24:42;5.90;;;3.13;;
75038;SDS011;63609;49.992;14.512;2023-07-20T03:27:09;5.95;;;3.28;;
75038;SDS011;63609;49.992;14.512;2023-07-20T03:29:36;5.88;;;3.10;;
75038;SDS011;63609;49.992;14.512;2023-07-20T03:32:03;6.45;;;3.00;;
75038;SDS011;63609;49.992;14.512;2023-07-20T03:34:31;4.55;;;2.90;;
75038;SDS011;63609;49.992;14.512;2023-07-20T03:36:58;3.85;;;2.58;;
75038;SDS011;63609;49.992;14.512;2023-07-20T03:39:26;4.15;;;2.58;;
75038;SDS011;63609;49.992;14.512;2023-07-20T03:41:53;6.80;;;3.42;;
75038;SDS011;63609;49.992;14.512;2023-07-20T03:44:20;5.85;;;3.33;;
75038;SDS011;63609;49.992;14.512;2023-07-20T03:46:48;4.80;;;2.60;;
75038;SDS011;63609;49.992;14.512;2023-07-20T03:49:15;4.60;;;2.95;;
75038;SDS011;63609;49.992;14.512;2023-07-20T03:51:42;5.00;;;3.20;;
75038;SDS011;63609;49.992;14.512;2023-07-20T03:54:09;8.75;;;3.30;;
75038;SDS011;63609;49.992;14.512;2023-07-20T03:56:37;5.38;;;2.90;;
75038;SDS011;63609;49.992;14.512;2023-07-20T03:59:04;6.80;;;3.03;;
75038;SDS011;63609;49.992;14.512;2023-07-20T04:01:31;5.85;;;2.83;;
75038;SDS011;63609;49.992;14.512;2023-07-20T04:04:06;5.10;;;3.20;;
75038;SDS011;63609;49.992;14.512;2023-07-20T04:06:34;6.18;;;3.05;;
75038;SDS011;63609;49.992;14.512;2023-07-20T04:09:01;8.35;;;2.97;;
75038;SDS011;63609;49.992;14.512;2023-07-20T04:11:28;6.15;;;3.17;;
75038;SDS011;63609;49.992;14.512;2023-07-20T04:13:55;4.40;;;2.53;;
75038;SDS011;63609;49.992;14.512;2023-07-20T04:16:24;7.30;;;3.00;;
75038;SDS011;63609;49.992;14.512;2023-07-20T04:18:54;4.75;;;2.70;;
75038;SDS011;63609;49.992;14.512;2023-07-20T04:21:22;4.38;;;2.63;;
75038;SDS011;63609;49.992;14.512;2023-07-20T04:23:50;6.05;;;2.58;;
75038;SDS011;63609;49.992;14.512;2023-07-20T04:26:18;4.45;;;2.58;;
75038;SDS011;63609;49.992;14.512;2023-07-20T04:28:45;4.18;;;2.65;;
75038;SDS011;63609;49.992;14.512;2023-07-20T04:31:20;4.47;;;2.85;;
75038;SDS011;63609;49.992;14.512;2023-07-20T04:33:47;5.03;;;3.10;;
75038;SDS011;63609;49.992;14.512;2023-07-20T04:36:16;4.95;;;3.10;;
75038;SDS011;63609;49.992;14.512;2023-07-20T04:38:46;5.50;;;3.13;;
75038;SDS011;63609;49.992;14.512;2023-07-20T04:41:18;6.32;;;3.42;;
75038;SDS011;63609;49.992;14.512;2023-07-20T04:43:48;6.80;;;3.60;;
75038;SDS011;63609;49.992;14.512;2023-07-20T04:46:22;6.20;;;3.10;;
75038;SDS011;63609;49.992;14.512;2023-07-20T04:48:51;6.65;;;3.40;;
75038;SDS011;63609;49.992;14.512;2023-07-20T04:51:19;4.00;;;2.97;;
75038;SDS011;63609;49.992;14.512;2023-07-20T04:53:50;7.72;;;3.03;;
75038;SDS011;63609;49.992;14.512;2023-07-20T04:56:17;5.60;;;3.13;;
75038;SDS011;63609;49.992;14.512;2023-07-20T04:58:45;6.97;;;2.97;;
75038;SDS011;63609;49.992;14.512;2023-07-20T05:01:13;4.50;;;3.10;;
75038;SDS011;63609;49.992;14.512;2023-07-20T05:03:41;5.68;;;3.05;;
75038;SDS011;63609;49.992;14.512;2023-07-20T05:06:09;6.28;;;3.35;;
75038;SDS011;63609;49.992;14.512;2023-07-20T05:08:37;6.93;;;3.05;;
75038;SDS011;63609;49.992;14.512;2023-07-20T05:11:04;7.18;;;3.50;;
75038;SDS011;63609;49.992;14.512;2023-07-20T05:13:31;5.35;;;3.20;;
75038;SDS011;63609;49.992;14.512;2023-07-20T05:15:58;5.70;;;3.25;;
75038;SDS011;63609;49.992;14.512;2023-07-20T05:18:26;5.35;;;3.10;;
75038;SDS011;63609;49.992;14.512;2023-07-20T05:20:53;4.70;;;3.17;;
75038;SDS011;63609;49.992;14.512;2023-07-20T05:23:22;5.30;;;3.03;;
75038;SDS011;63609;49.992;14.512;2023-07-20T05:25:56;7.05;;;2.92;;
75038;SDS011;63609;49.992;14.512;2023-07-20T05:28:24;5.32;;;2.70;;
75038;SDS011;63609;49.992;14.512;2023-07-20T05:30:53;4.70;;;2.53;;
75038;SDS011;63609;49.992;14.512;2023-07-20T05:33:20;6.30;;;3.42;;
75038;SDS011;63609;49.992;14.512;2023-07-20T05:35:47;5.72;;;3.03;;
75038;SDS011;63609;49.992;14.512;2023-07-20T05:38:14;7.80;;;3.17;;
75038;SDS011;63609;49.992;14.512;2023-07-20T05:40:42;7.75;;;3.20;;
75038;SDS011;63609;49.992;14.512;2023-07-20T05:43:10;5.57;;;3.05;;
75038;SDS011;63609;49.992;14.512;2023-07-20T05:45:41;4.63;;;2.80;;
75038;SDS011;63609;49.992;14.512;2023-07-20T05:48:10;5.28;;;2.90;;
75038;SDS011;63609;49.992;14.512;2023-07-20T05:50:42;8.68;;;3.38;;
75038;SDS011;63609;49.992;14.512;2023-07-20T05:53:11;6.53;;;3.00;;
75038;SDS011;63609;49.992;14.512;2023-07-20T05:55:38;5.50;;;3.25;;
75038;SDS011;63609;49.992;14.512;2023-07-20T05:58:06;5.43;;;3.22;;
75038;SDS011;63609;49.992;14.512;2023-07-20T06:00:33;7.88;;;3.30;;
75038;SDS011;63609;49.992;14.512;2023-07-20T06:03:00;6.60;;;3.17;;
75038;SDS011;63609;49.992;14.512;2023-07-20T06:05:29;5.82;;;3.10;;
75038;SDS011;63609;49.992;14.512;2023-07-20T06:07:56;7.70;;;3.30;;
75038;SDS011;63609;49.992;14.512;2023-07-20T06:10:24;8.13;;;2.92;;
75038;SDS011;63609;49.992;14.512;2023-07-20T06:12:51;5.65;;;2.80;;
75038;SDS011;63609;49.992;14.512;2023-07-20T06:15:26;4.97;;;2.30;;
75038;SDS011;63609;49.992;14.512;2023-07-20T06:17:58;5.43;;;2.72;;
75038;SDS011;63609;49.992;14.512;2023-07-20T06:20:25;5.82;;;2.90;;
75038;SDS011;63609;49.992;14.512;2023-07-20T06:22:52;4.93;;;2.80;;
75038;SDS011;63609;49.992;14.512;2023-07-20T06:25:20;5.13;;;2.83;;
75038;SDS011;63609;49.992;14.512;2023-07-20T06:27:48;5.72;;;2.22;;
75038;SDS011;63609;49.992;14.512;2023-07-20T06:30:17;9.00;;;2.63;;
75038;SDS011;63609;49.992;14.512;2023-07-20T06:32:45;82.05;;;7.53;;
75038;SDS011;63609;49.992;14.512;2023-07-20T06:35:12;7.25;;;3.00;;
75038;SDS011;63609;49.992;14.512;2023-07-20T06:37:39;5.22;;;2.90;;
75038;SDS011;63609;49.992;14.512;2023-07-20T06:40:06;4.60;;;2.83;;
75038;SDS011;63609;49.992;14.512;2023-07-20T06:42:38;5.38;;;3.10;;
75038;SDS011;63609;49.992;14.512;2023-07-20T06:45:08;5.40;;;2.70;;
75038;SDS011;63609;49.992;14.512;2023-07-20T06:47:37;4.30;;;2.38;;
75038;SDS011;63609;49.992;14.512;2023-07-20T06:50:06;4.32;;;2.55;;
75038;SDS011;63609;49.992;14.512;2023-07-20T06:52:33;5.47;;;2.33;;
75038;SDS011;63609;49.992;14.512;2023-07-20T06:55:00;5.13;;;2.30;;
75038;SDS011;63609;49.992;14.512;2023-07-20T06:57:31;7.03;;;2.65;;
75038;SDS011;63609;49.992;14.512;2023-07-20T06:59:58;4.70;;;2.47;;
75038;SDS011;63609;49.992;14.512;2023-07-20T07:02:25;3.70;;;2.50;;
75038;SDS011;63609;49.992;14.512;2023-07-20T07:04:52;5.75;;;2.50;;
75038;SDS011;63609;49.992;14.512;2023-07-20T07:07:23;5.95;;;2.50;;
75038;SDS011;63609;49.992;14.512;2023-07-20T07:09:53;5.72;;;2.92;;
75038;SDS011;63609;49.992;14.512;2023-07-20T07:12:21;4.93;;;2.75;;
75038;SDS011;63609;49.992;14.512;2023-07-20T07:14:47;4.00;;;2.22;;
75038;SDS011;63609;49.992;14.512;2023-07-20T07:17:14;5.93;;;1.77;;
75038;SDS011;63609;49.992;14.512;2023-07-20T07:19:45;5.65;;;2.10;;
75038;SDS011;63609;49.992;14.512;2023-07-20T07:22:14;5.93;;;2.58;;
75038;SDS011;63609;49.992;14.512;2023-07-20T07:24:42;3.65;;;2.10;;
75038;SDS011;63609;49.992;14.512;2023-07-20T07:27:10;3.45;;;2.17;;
75038;SDS011;63609;49.992;14.512;2023-07-20T07:29:37;8.77;;;2.45;;
75038;SDS011;63609;49.992;14.512;2023-07-20T07:32:04;4.30;;;2.30;;
75038;SDS011;63609;49.992;14.512;2023-07-20T07:34:32;3.88;;;1.92;;
75038;SDS011;63609;49.992;14.512;2023-07-20T07:37:01;3.20;;;1.90;;
75038;SDS011;63609;49.992;14.512;2023-07-20T07:39:29;7.72;;;2.35;;
75038;SDS011;63609;49.992;14.512;2023-07-20T07:41:59;4.38;;;2.05;;
75038;SDS011;63609;49.992;14.512;2023-07-20T07:44:26;4.85;;;2.08;;
75038;SDS011;63609;49.992;14.512;2023-07-20T07:46:53;4.40;;;2.25;;
75038;SDS011;63609;49.992;14.512;2023-07-20T07:49:21;3.88;;;2.30;;
75038;SDS011;63609;49.992;14.512;2023-07-20T07:51:47;3.80;;;2.35;;
75038;SDS011;63609;49.992;14.512;2023-07-20T07:54:15;2.97;;;2.00;;
75038;SDS011;63609;49.992;14.512;2023-07-20T07:56:42;5.15;;;2.00;;
75038;SDS011;63609;49.992;14.512;2023-07-20T07:59:11;3.80;;;1.92;;
75038;SDS011;63609;49.992;14.512;2023-07-20T08:01:38;4.18;;;2.30;;
75038;SDS011;63609;49.992;14.512;2023-07-20T08:04:05;6.13;;;2.22;;
75038;SDS011;63609;49.992;14.512;2023-07-20T08:06:32;4.35;;;2.08;;
75038;SDS011;63609;49.992;14.512;2023-07-20T08:08:58;2.75;;;1.70;;
75038;SDS011;63609;49.992;14.512;2023-07-20T08:11:26;5.95;;;2.30;;
75038;SDS011;63609;49.992;14.512;2023-07-20T08:13:53;4.60;;;1.90;;
75038;SDS011;63609;49.992;14.512;2023-07-20T08:16:20;3.20;;;1.90;;
75038;SDS011;63609;49.992;14.512;2023-07-20T08:18:47;3.85;;;1.80;;
75038;SDS011;63609;49.992;14.512;2023-07-20T08:21:14;6.85;;;2.05;;
75038;SDS011;63609;49.992;14.512;2023-07-20T08:23:41;29.63;;;4.70;;
75038;SDS011;63609;49.992;14.512;2023-07-20T08:26:09;4.30;;;1.88;;
75038;SDS011;63609;49.992;14.512;2023-07-20T08:28:36;4.88;;;1.88;;
75038;SDS011;63609;49.992;14.512;2023-07-20T08:31:05;4.25;;;1.70;;
75038;SDS011;63609;49.992;14.512;2023-07-20T08:33:33;3.05;;;1.70;;
75038;SDS011;63609;49.992;14.512;2023-07-20T08:36:01;4.40;;;1.65;;
75038;SDS011;63609;49.992;14.512;2023-07-20T08:38:31;3.38;;;1.70;;
75038;SDS011;63609;49.992;14.512;2023-07-20T08:40:58;3.58;;;1.60;;
75038;SDS011;63609;49.992;14.512;2023-07-20T08:43:27;3.30;;;1.35;;
75038;SDS011;63609;49.992;14.512;2023-07-20T08:45:55;3.78;;;1.77;;
75038;SDS011;63609;49.992;14.512;2023-07-20T08:48:23;3.97;;;1.40;;
75038;SDS011;63609;49.992;14.512;2023-07-20T08:50:54;3.42;;;1.65;;
75038;SDS011;63609;49.992;14.512;2023-07-20T08:53:23;4.93;;;1.60;;
75038;SDS011;63609;49.992;14.512;2023-07-20T08:55:51;3.83;;;1.60;;
75038;SDS011;63609;49.992;14.512;2023-07-20T08:58:21;4.63;;;1.50;;
75038;SDS011;63609;49.992;14.512;2023-07-20T09:00:52;4.55;;;1.75;;
75038;SDS011;63609;49.992;14.512;2023-07-20T09:03:20;5.75;;;1.85;;
75038;SDS011;63609;49.992;14.512;2023-07-20T09:05:48;3.25;;;1.65;;
75038;SDS011;63609;49.992;14.512;2023-07-20T09:08:15;7.18;;;1.80;;
75038;SDS011;63609;49.992;14.512;2023-07-20T09:10:42;3.72;;;1.70;;
75038;SDS011;63609;49.992;14.512;2023-07-20T09:13:09;3.42;;;1.73;;
75038;SDS011;63609;49.992;14.512;2023-07-20T09:15:47;3.80;;;1.80;;
75038;SDS011;63609;49.992;14.512;2023-07-20T09:18:23;3.83;;;1.42;;
75038;SDS011;63609;49.992;14.512;2023-07-20T09:20:59;3.47;;;1.83;;
75038;SDS011;63609;49.992;14.512;2023-07-20T09:23:29;3.33;;;1.60;;
75038;SDS011;63609;49.992;14.512;2023-07-20T09:25:58;3.65;;;1.52;;
75038;SDS011;63609;49.992;14.512;2023-07-20T09:28:25;3.17;;;1.63;;
75038;SDS011;63609;49.992;14.512;2023-07-20T09:30:54;2.33;;;1.42;;
75038;SDS011;63609;49.992;14.512;2023-07-20T09:33:24;7.18;;;1.90;;
75038;SDS011;63609;49.992;14.512;2023-07-20T09:35:53;4.28;;;1.60;;
75038;SDS011;63609;49.992;14.512;2023-07-20T09:40:53;2.58;;;1.90;;
75038;SDS011;63609;49.992;14.512;2023-07-20T09:43:21;3.53;;;1.52;;
75038;SDS011;63609;49.992;14.512;2023-07-20T09:45:51;2.80;;;1.40;;
75038;SDS011;63609;49.992;14.512;2023-07-20T09:48:24;2.88;;;1.50;;
75038;SDS011;63609;49.992;14.512;2023-07-20T09:50:56;3.70;;;1.60;;
75038;SDS011;63609;49.992;14.512;2023-07-20T09:53:24;3.17;;;1.63;;
75038;SDS011;63609;49.992;14.512;2023-07-20T09:55:52;3.60;;;1.60;;
75038;SDS011;63609;49.992;14.512;2023-07-20T09:58:22;3.55;;;1.45;;
75038;SDS011;63609;49.992;14.512;2023-07-20T10:00:50;4.47;;;2.83;;
75038;SDS011;63609;49.992;14.512;2023-07-20T10:03:20;5.28;;;1.60;;
75038;SDS011;63609;49.992;14.512;2023-07-20T10:06:09;4.25;;;1.70;;
75038;SDS011;63609;49.992;14.512;2023-07-20T10:08:38;3.42;;;1.52;;
75038;SDS011;63609;49.992;14.512;2023-07-20T10:11:11;4.93;;;1.80;;
75038;SDS011;63609;49.992;14.512;2023-07-20T10:13:41;3.55;;;1.60;;
75038;SDS011;63609;49.992;14.512;2023-07-20T10:16:12;3.10;;;1.60;;
75038;SDS011;63609;49.992;14.512;2023-07-20T10:18:50;3.10;;;1.70;;
75038;SDS011;63609;49.992;14.512;2023-07-20T10:21:26;5.28;;;1.60;;
75038;SDS011;63609;49.992;14.512;2023-07-20T10:26:26;3.42;;;1.50;;
75038;SDS011;63609;49.992;14.512;2023-07-20T10:28:53;2.53;;;1.50;;
75038;SDS011;63609;49.992;14.512;2023-07-20T10:31:22;4.72;;;1.58;;
75038;SDS011;63609;49.992;14.512;2023-07-20T10:33:51;3.22;;;1.55;;
75038;SDS011;63609;49.992;14.512;2023-07-20T10:36:24;3.05;;;1.63;;
75038;SDS011;63609;49.992;14.512;2023-07-20T10:38:57;2.95;;;1.38;;
75038;SDS011;63609;49.992;14.512;2023-07-20T10:41:29;5.13;;;1.55;;
75038;SDS011;63609;49.992;14.512;2023-07-20T10:44:02;4.63;;;1.40;;
75038;SDS011;63609;49.992;14.512;2023-07-20T10:49:13;4.20;;;1.60;;
75038;SDS011;63609;49.992;14.512;2023-07-20T10:51:45;2.47;;;1.50;;
75038;SDS011;63609;49.992;14.512;2023-07-20T10:56:49;2.15;;;1.67;;
75038;SDS011;63609;49.992;14.512;2023-07-20T11:02:09;3.88;;;1.48;;
75038;SDS011;63609;49.992;14.512;2023-07-20T11:04:39;3.60;;;1.70;;
75038;SDS011;63609;49.992;14.512;2023-07-20T11:07:07;4.03;;;1.70;;
75038;SDS011;63609;49.992;14.512;2023-07-20T11:09:37;4.47;;;1.92;;
75038;SDS011;63609;49.992;14.512;2023-07-20T11:12:18;2.70;;;1.70;;
75038;SDS011;63609;49.992;14.512;2023-07-20T11:14:55;8.95;;;2.03;;
75038;SDS011;63609;49.992;14.512;2023-07-20T11:17:31;4.05;;;1.60;;
75038;SDS011;63609;49.992;14.512;2023-07-20T11:20:00;3.97;;;1.77;;
75038;SDS011;63609;49.992;14.512;2023-07-20T11:22:31;4.20;;;1.80;;
75038;SDS011;63609;49.992;14.512;2023-07-20T11:24:58;3.55;;;1.92;;
75038;SDS011;63609;49.992;14.512;2023-07-20T11:27:25;4.85;;;1.83;;
75038;SDS011;63609;49.992;14.512;2023-07-20T11:29:52;3.17;;;1.70;;
75038;SDS011;63609;49.992;14.512;2023-07-20T11:32:22;4.28;;;1.90;;
75038;SDS011;63609;49.992;14.512;2023-07-20T11:34:51;2.63;;;1.63;;
75038;SDS011;63609;49.992;14.512;2023-07-20T11:37:18;2.80;;;1.70;;
75038;SDS011;63609;49.992;14.512;2023-07-20T11:39:45;4.07;;;2.00;;
75038;SDS011;63609;49.992;14.512;2023-07-20T11:42:13;3.33;;;1.70;;
75038;SDS011;63609;49.992;14.512;2023-07-20T11:45:03;4.70;;;1.63;;
75038;SDS011;63609;49.992;14.512;2023-07-20T11:47:32;3.47;;;1.50;;
75038;SDS011;63609;49.992;14.512;2023-07-20T11:50:03;3.17;;;1.70;;
75038;SDS011;63609;49.992;14.512;2023-07-20T11:52:31;3.30;;;1.85;;
75038;SDS011;63609;49.992;14.512;2023-07-20T11:54:58;4.18;;;1.60;;
75038;SDS011;63609;49.992;14.512;2023-07-20T11:57:25;5.32;;;1.52;;
75038;SDS011;63609;49.992;14.512;2023-07-20T11:59:57;2.80;;;1.70;;
75038;SDS011;63609;49.992;14.512;2023-07-20T12:02:30;3.30;;;1.50;;
75038;SDS011;63609;49.992;14.512;2023-07-20T12:04:57;2.70;;;1.50;;
75038;SDS011;63609;49.992;14.512;2023-07-20T12:07:27;2.47;;;1.55;;
75038;SDS011;63609;49.992;14.512;2023-07-20T12:10:08;2.70;;;1.35;;
75038;SDS011;63609;49.992;14.512;2023-07-20T12:12:38;4.60;;;1.60;;
75038;SDS011;63609;49.992;14.512;2023-07-20T12:15:20;11.30;;;2.20;;
75038;SDS011;63609;49.992;14.512;2023-07-20T12:17:50;3.55;;;1.42;;
75038;SDS011;63609;49.992;14.512;2023-07-20T12:20:30;3.90;;;2.00;;
75038;SDS011;63609;49.992;14.512;2023-07-20T12:22:59;3.60;;;1.58;;
75038;SDS011;63609;49.992;14.512;2023-07-20T12:25:37;5.05;;;1.70;;
75038;SDS011;63609;49.992;14.512;2023-07-20T12:28:12;3.28;;;1.42;;
75038;SDS011;63609;49.992;14.512;2023-07-20T12:30:41;4.68;;;1.73;;
75038;SDS011;63609;49.992;14.512;2023-07-20T12:33:11;2.90;;;1.60;;
75038;SDS011;63609;49.992;14.512;2023-07-20T12:35:43;3.35;;;1.40;;
75038;SDS011;63609;49.992;14.512;2023-07-20T12:38:11;2.53;;;1.33;;
75038;SDS011;63609;49.992;14.512;2023-07-20T12:40:39;3.75;;;1.30;;
75038;SDS011;63609;49.992;14.512;2023-07-20T12:43:07;3.08;;;1.40;;
75038;SDS011;63609;49.992;14.512;2023-07-20T12:45:34;2.40;;;1.50;;
75038;SDS011;63609;49.992;14.512;2023-07-20T12:48:02;3.30;;;1.70;;
75038;SDS011;63609;49.992;14.512;2023-07-20T12:50:29;3.03;;;1.55;;
75038;SDS011;63609;49.992;14.512;2023-07-20T12:52:57;3.63;;;1.73;;
75038;SDS011;63609;49.992;14.512;2023-07-20T12:55:25;3.17;;;1.52;;
75038;SDS011;63609;49.992;14.512;2023-07-20T12:57:52;2.88;;;1.52;;
75038;SDS011;63609;49.992;14.512;2023-07-20T13:00:19;4.38;;;1.52;;
75038;SDS011;63609;49.992;14.512;2023-07-20T13:02:46;2.50;;;1.30;;
75038;SDS011;63609;49.992;14.512;2023-07-20T13:05:14;2.92;;;1.30;;
75038;SDS011;63609;49.992;14.512;2023-07-20T13:07:42;3.22;;;1.30;;
75038;SDS011;63609;49.992;14.512;2023-07-20T13:10:12;2.83;;;1.40;;
75038;SDS011;63609;49.992;14.512;2023-07-20T13:12:39;3.35;;;1.40;;
75038;SDS011;63609;49.992;14.512;2023-07-20T13:15:07;5.35;;;2.00;;
75038;SDS011;63609;49.992;14.512;2023-07-20T13:17:36;3.53;;;1.83;;
75038;SDS011;63609;49.992;14.512;2023-07-20T13:20:05;2.33;;;1.40;;
75038;SDS011;63609;49.992;14.512;2023-07-20T13:22:35;4.05;;;1.58;;
75038;SDS011;63609;49.992;14.512;2023-07-20T13:25:03;3.83;;;1.42;;
75038;SDS011;63609;49.992;14.512;2023-07-20T13:27:31;2.80;;;1.40;;
75038;SDS011;63609;49.992;14.512;2023-07-20T13:29:58;4.15;;;1.67;;
75038;SDS011;63609;49.992;14.512;2023-07-20T13:32:29;2.58;;;1.45;;
75038;SDS011;63609;49.992;14.512;2023-07-20T13:34:59;2.90;;;1.30;;
75038;SDS011;63609;49.992;14.512;2023-07-20T13:37:27;2.83;;;1.60;;
75038;SDS011;63609;49.992;14.512;2023-07-20T13:39:54;3.90;;;1.52;;
75038;SDS011;63609;49.992;14.512;2023-07-20T13:42:23;2.70;;;1.40;;
75038;SDS011;63609;49.992;14.512;2023-07-20T13:44:50;2.53;;;1.48;;
75038;SDS011;63609;49.992;14.512;2023-07-20T13:47:17;2.53;;;1.30;;
75038;SDS011;63609;49.992;14.512;2023-07-20T13:49:47;3.50;;;1.30;;
75038;SDS011;63609;49.992;14.512;2023-07-20T13:52:29;4.25;;;1.50;;
75038;SDS011;63609;49.992;14.512;2023-07-20T13:54:59;3.72;;;1.38;;
75038;SDS011;63609;49.992;14.512;2023-07-20T13:57:26;2.85;;;1.30;;
75038;SDS011;63609;49.992;14.512;2023-07-20T13:59:54;2.90;;;1.20;;
75038;SDS011;63609;49.992;14.512;2023-07-20T14:02:21;2.85;;;1.40;;
75038;SDS011;63609;49.992;14.512;2023-07-20T14:04:51;4.60;;;1.40;;
75038;SDS011;63609;49.992;14.512;2023-07-20T14:07:38;2.25;;;1.45;;
75038;SDS011;63609;49.992;14.512;2023-07-20T14:10:06;2.25;;;1.42;;
75038;SDS011;63609;49.992;14.512;2023-07-20T14:12:36;3.42;;;1.38;;
75038;SDS011;63609;49.992;14.512;2023-07-20T14:15:03;4.78;;;1.50;;
75038;SDS011;63609;49.992;14.512;2023-07-20T14:17:31;2.95;;;1.40;;
75038;SDS011;63609;49.992;14.512;2023-07-20T14:19:59;3.90;;;1.75;;
75038;SDS011;63609;49.992;14.512;2023-07-20T14:22:26;2.55;;;1.55;;
75038;SDS011;63609;49.992;14.512;2023-07-20T14:24:53;4.43;;;1.90;;
75038;SDS011;63609;49.992;14.512;2023-07-20T14:27:20;4.68;;;1.52;;
75038;SDS011;63609;49.992;14.512;2023-07-20T14:29:47;3.42;;;1.55;;
75038;SDS011;63609;49.992;14.512;2023-07-20T14:32:14;7.65;;;2.78;;
75038;SDS011;63609;49.992;14.512;2023-07-20T14:34:41;3.60;;;1.52;;
75038;SDS011;63609;49.992;14.512;2023-07-20T14:37:08;4.00;;;1.38;;
75038;SDS011;63609;49.992;14.512;2023-07-20T14:39:35;3.35;;;1.52;;
75038;SDS011;63609;49.992;14.512;2023-07-20T14:42:02;3.75;;;1.52;;
75038;SDS011;63609;49.992;14.512;2023-07-20T14:44:32;10.18;;;2.22;;
75038;SDS011;63609;49.992;14.512;2023-07-20T14:46:59;3.85;;;1.60;;
75038;SDS011;63609;49.992;14.512;2023-07-20T14:49:43;4.65;;;1.63;;
75038;SDS011;63609;49.992;14.512;2023-07-20T14:52:11;4.82;;;1.30;;
75038;SDS011;63609;49.992;14.512;2023-07-20T14:54:42;3.17;;;1.40;;
75038;SDS011;63609;49.992;14.512;2023-07-20T14:57:09;6.60;;;1.92;;
75038;SDS011;63609;49.992;14.512;2023-07-20T14:59:41;3.40;;;1.40;;
75038;SDS011;63609;49.992;14.512;2023-07-20T15:02:08;2.38;;;1.42;;
75038;SDS011;63609;49.992;14.512;2023-07-20T15:04:36;2.58;;;1.50;;
75038;SDS011;63609;49.992;14.512;2023-07-20T15:07:03;4.25;;;1.65;;
75038;SDS011;63609;49.992;14.512;2023-07-20T15:09:31;2.75;;;1.48;;